This is the latest recevied weather packets stored in our database for station/object KI4FRU. If no packets are shown the sender has not sent any weather packets the latest 10 day(s).
| Time | Temp. | Humidity | Pressure | Rain* | Wind** | Luminosity | Snow |
|---|---|---|---|---|---|---|---|
| 1777492917 | 26.11° C | 79% | 1047.6 hPa | 0 mm | - | 33 W/m² | - |
| 1777492614 | 26.11° C | 72% | 1047.9 hPa | 0 mm | - | 87 W/m² | - |
| 1777492309 | 26.67° C | 74% | 1047.9 hPa | 0 mm | - | 63 W/m² | - |
| 1777492007 | 27.78° C | 73% | 1048 hPa | 0 mm | - | 56 W/m² | - |
| 1777491704 | 29.44° C | 67% | 1047.9 hPa | 0 mm | - | 155 W/m² | - |
| 1777491402 | 27.78° C | 69% | 1048.2 hPa | 0 mm | - | 710 W/m² | - |
| 1777491098 | 26.67° C | 74% | 1048.2 hPa | 0 mm | - | 198 W/m² | - |
| 1777490794 | 27.22° C | 72% | 1048.3 hPa | 0 mm | - | 139 W/m² | - |
| 1777490491 | 28.33° C | 70% | 1048.3 hPa | 0 mm | - | 124 W/m² | - |
| 1777490187 | 26.11° C | 74% | 1048.4 hPa | 0 mm | - | 472 W/m² | - |
| 1777489884 | 29.44° C | 67% | 1048.4 hPa | 0 mm | - | 134 W/m² | - |
| 1777489582 | 26.67° C | 69% | 1048.3 hPa | 0 mm | - | 705 W/m² | - |
| 1777489277 | 27.78° C | 70% | 1048.5 hPa | 0 mm | - | 205 W/m² | - |
| 1777488975 | 27.78° C | 76% | 1048.6 hPa | 0 mm | - | 229 W/m² | - |
| 1777488672 | 26.67° C | 75% | 1048.4 hPa | 0 mm | - | 217 W/m² | - |
| 1777488369 | 25.56° C | 78% | 1048.4 hPa | 0 mm | - | 181 W/m² | - |
| 1777488068 | 26.67° C | 75% | 1048.6 hPa | 0 mm | - | 134 W/m² | - |
| 1777487765 | 27.78° C | 75% | 1048.8 hPa | 0 mm | - | 111 W/m² | - |
| 1777487463 | 26.67° C | 73% | 1049 hPa | 0 mm | - | 596 W/m² | - |
| 1777487161 | 28.33° C | 72% | 1048.9 hPa | 0 mm | - | 110 W/m² | - |
| 1777486855 | 27.78° C | 70% | 1049 hPa | 0 mm | - | 265 W/m² | - |
| 1777486553 | 27.78° C | 77% | 1049.3 hPa | 0 mm | - | 110 W/m² | - |
| 1777486250 | 26.11° C | 76% | 1049.3 hPa | 0 mm | - | 391 W/m² | - |
| 1777485948 | 26.67° C | 76% | 1049.3 hPa | 0 mm | - | 145 W/m² | - |
| 1777485644 | 26.67° C | 77% | 1049.4 hPa | 0 mm | - | 98 W/m² | - |
* Rain latest hour (hover to see other rain measurements)
** Current wind speed in m/s (hover to see current wind gust speed)